Time;durP1;ratioP1;P1;durP2;ratioP2;P2;SDS_P1;SDS_P2;PMS_P1;PMS_P2;Temp;Humidity;BMP_temperature;BMP_pressure;BME280_temperature;BME280_humidity;BME280_pressure;Samples;Min_cycle;Max_cycle;Signal;HPM_P1;HPM_P2
2022/09/11 00:00:18;;;;;;;10.32;9.82;;;;;;;16.13;100.00;100329.63;5055227;28;20055;-62
2022/09/11 00:02:43;;;;;;;9.98;9.50;;;;;;;16.19;100.00;100334.94;5053821;28;20029;-62
2022/09/11 00:05:09;;;;;;;9.65;9.25;;;;;;;16.20;100.00;100322.38;5055109;28;20033;-63
2022/09/11 00:07:35;;;;;;;10.00;9.50;;;;;;;16.12;100.00;100318.09;5054793;28;20123;-63
2022/09/11 00:10:01;;;;;;;10.00;9.50;;;;;;;16.07;100.00;100320.59;5053567;28;20025;-62
2022/09/11 00:12:27;;;;;;;10.10;9.60;;;;;;;16.06;100.00;100318.94;5042259;28;20631;-63
2022/09/11 00:14:52;;;;;;;9.95;9.48;;;;;;;16.13;100.00;100324.25;5054975;28;20527;-63
2022/09/11 00:17:18;;;;;;;10.00;9.50;;;;;;;16.02;100.00;100321.25;5045775;28;20025;-63
2022/09/11 00:19:43;;;;;;;9.82;9.40;;;;;;;16.06;100.00;100323.47;5044026;28;20025;-63
2022/09/11 00:22:08;;;;;;;9.82;9.38;;;;;;;16.03;100.00;100325.56;5053456;28;20032;-63
2022/09/11 00:24:34;;;;;;;9.43;9.02;;;;;;;15.97;100.00;100323.75;5053428;28;20025;-63
2022/09/11 00:27:00;;;;;;;10.02;9.52;;;;;;;15.93;100.00;100322.53;5054788;28;20586;-64
2022/09/11 00:29:26;;;;;;;9.75;9.35;;;;;;;15.94;100.00;100326.03;5053584;28;20029;-63
2022/09/11 00:31:51;;;;;;;10.00;9.50;;;;;;;16.10;100.00;100319.34;5054450;28;20056;-63
2022/09/11 00:34:17;;;;;;;10.57;10.07;;;;;;;15.93;100.00;100322.53;5041198;28;20400;-63
2022/09/11 00:36:43;;;;;;;10.25;9.75;;;;;;;15.98;100.00;100327.22;5054434;28;20036;-63
2022/09/11 00:39:13;;;;;;;9.98;9.52;;;;;;;15.86;100.00;100318.25;5054304;28;20064;-62
2022/09/11 00:41:41;;;;;;;9.82;9.40;;;;;;;15.87;100.00;100322.59;5054702;28;20039;-63
2022/09/11 00:44:14;;;;;;;9.98;9.48;;;;;;;15.97;100.00;100318.38;5053784;28;20036;-62
2022/09/11 00:47:08;;;;;;;10.23;9.73;;;;;;;15.82;100.00;100319.72;5053286;28;20483;-63
2022/09/11 00:49:42;;;;;;;10.07;9.57;;;;;;;15.92;100.00;100320.06;5046400;28;20045;-63
2022/09/11 00:52:13;;;;;;;10.07;9.57;;;;;;;15.97;100.00;100326.41;5052944;28;20048;-62
2022/09/11 00:54:48;;;;;;;10.13;9.63;;;;;;;15.89;100.00;100329.34;5054140;28;20033;-63
2022/09/11 00:57:17;;;;;;;9.88;9.40;;;;;;;15.89;100.00;100331.22;5040525;28;20035;-62
2022/09/11 00:59:46;;;;;;;10.10;9.60;;;;;;;15.82;100.00;100330.41;5054242;28;20079;-63
2022/09/11 01:02:16;;;;;;;9.93;9.48;;;;;;;15.83;100.00;100322.19;5038959;28;20051;-63
2022/09/11 01:04:41;;;;;;;10.30;9.80;;;;;;;15.77;100.00;100316.84;5052570;28;20108;-63
2022/09/11 01:07:09;;;;;;;9.70;9.30;;;;;;;15.80;100.00;100317.25;5053354;28;20117;-63
2022/09/11 01:09:34;;;;;;;10.02;9.52;;;;;;;15.78;100.00;100313.97;5053874;28;20033;-63
2022/09/11 01:12:06;;;;;;;9.95;9.45;;;;;;;15.68;100.00;100303.72;5053838;28;20087;-63
2022/09/11 01:14:43;;;;;;;10.10;9.60;;;;;;;15.65;100.00;100314.88;5053857;28;20029;-63
2022/09/11 01:17:42;;;;;;;9.77;9.38;;;;;;;15.74;100.00;100316.25;5050380;28;20372;-63
2022/09/11 01:20:25;;;;;;;11.10;10.57;;;;;;;15.70;100.00;100323.06;5050583;28;20550;-63
2022/09/11 01:23:18;;;;;;;9.95;9.45;;;;;;;15.72;100.00;100330.88;5042039;28;20029;-64
2022/09/11 01:26:04;;;;;;;9.55;9.15;;;;;;;15.68;100.00;100332.34;5045830;28;20112;-63
2022/09/11 01:29:04;;;;;;;9.77;9.32;;;;;;;15.67;100.00;100336.03;5053477;28;20056;-62
2022/09/11 01:31:37;;;;;;;10.00;9.50;;;;;;;15.66;100.00;100340.56;5039651;28;20386;-63
2022/09/11 01:34:12;;;;;;;9.70;9.30;;;;;;;15.64;100.00;100336.44;5053486;28;20025;-63
2022/09/11 01:36:45;;;;;;;10.38;9.88;;;;;;;15.70;100.00;100335.59;5052530;28;20112;-62
2022/09/11 01:39:12;;;;;;;10.00;9.50;;;;;;;15.55;100.00;100322.47;5039042;28;20021;-63
2022/09/11 01:41:52;;;;;;;9.88;9.38;;;;;;;15.52;100.00;100324.78;5053296;28;20029;-63
2022/09/11 01:44:21;;;;;;;10.27;9.77;;;;;;;15.53;100.00;100335.25;5040428;28;20554;-62
2022/09/11 01:46:50;;;;;;;10.20;9.70;;;;;;;15.62;100.00;100325.16;5053219;28;20043;-62
2022/09/11 01:49:25;;;;;;;10.02;9.52;;;;;;;15.60;100.00;100311.97;5053165;28;20538;-63
2022/09/11 01:51:56;;;;;;;10.05;9.55;;;;;;;15.50;100.00;100314.28;5053239;28;20136;-62
2022/09/11 01:54:28;;;;;;;10.10;9.60;;;;;;;15.54;100.00;100309.31;5051866;28;20036;-63
2022/09/11 01:57:12;;;;;;;10.05;9.55;;;;;;;15.51;100.00;100317.78;5045318;28;20032;-63
2022/09/11 01:59:48;;;;;;;10.32;9.82;;;;;;;15.45;100.00;100322.94;5053157;28;20017;-63
2022/09/11 02:02:21;;;;;;;10.18;9.68;;;;;;;15.37;100.00;100319.69;5052950;28;20037;-62
2022/09/11 02:04:59;;;;;;;10.20;9.70;;;;;;;15.24;100.00;100330.41;5052866;28;20025;-63
2022/09/11 02:07:31;;;;;;;10.10;9.60;;;;;;;15.40;100.00;100327.25;5052978;28;20118;-63
2022/09/11 02:10:00;;;;;;;9.90;9.40;;;;;;;15.17;100.00;100314.38;5047493;28;20064;-62
2022/09/11 02:12:33;;;;;;;10.30;9.80;;;;;;;15.29;100.00;100318.06;5052707;28;20033;-63
2022/09/11 02:14:59;;;;;;;10.00;9.50;;;;;;;15.34;100.00;100315.56;5038971;28;20024;-62
2022/09/11 02:17:27;;;;;;;10.02;9.55;;;;;;;15.46;100.00;100327.25;5051839;28;20032;-63
2022/09/11 02:19:57;;;;;;;10.32;9.82;;;;;;;15.37;100.00;100319.69;5051226;28;20025;-62
2022/09/11 02:22:23;;;;;;;9.68;9.27;;;;;;;15.47;100.00;100317.38;5052503;28;20201;-62
2022/09/11 02:24:49;;;;;;;10.00;9.50;;;;;;;15.44;100.00;100305.25;5052512;28;20071;-63
2022/09/11 02:27:26;;;;;;;10.27;9.77;;;;;;;15.48;100.00;100319.00;5051419;28;20033;-63
2022/09/11 02:29:53;;;;;;;10.00;9.50;;;;;;;15.45;100.00;100312.25;5051039;28;20415;-63
2022/09/11 02:32:21;;;;;;;9.70;9.30;;;;;;;15.30;100.00;100319.69;5052397;28;20473;-63
2022/09/11 02:34:47;;;;;;;10.07;9.57;;;;;;;15.29;100.00;100314.56;5052624;28;20451;-62
2022/09/11 02:37:19;;;;;;;10.27;9.77;;;;;;;15.25;100.00;100316.00;5052332;28;20087;-62
2022/09/11 02:40:06;;;;;;;10.10;9.60;;;;;;;15.31;100.00;100321.34;5052431;28;20024;-63
2022/09/11 02:42:53;;;;;;;10.70;10.20;;;;;;;15.35;100.00;100311.88;5052095;28;20021;-62
2022/09/11 02:45:59;;;;;;;10.07;9.57;;;;;;;15.23;100.00;100315.41;5051653;28;20044;-62
2022/09/11 02:48:49;;;;;;;10.10;9.60;;;;;;;15.27;100.00;100313.94;5038000;28;20025;-63
2022/09/11 02:51:33;;;;;;;10.57;10.07;;;;;;;15.26;100.00;100318.47;5052114;28;20025;-63
2022/09/11 02:54:34;;;;;;;10.05;9.55;;;;;;;15.37;100.00;100303.66;5038449;28;20029;-63
2022/09/11 02:57:15;;;;;;;10.10;9.60;;;;;;;15.41;100.00;100302.16;5051875;28;20435;-63
2022/09/11 03:00:01;;;;;;;10.18;9.68;;;;;;;15.41;100.00;100307.53;5051971;28;20029;-62
2022/09/11 03:02:32;;;;;;;9.65;9.25;;;;;;;15.27;100.00;100309.41;5045230;28;20025;-63
2022/09/11 03:04:58;;;;;;;10.07;9.57;;;;;;;15.25;100.00;100313.34;5051857;28;20033;-63
2022/09/11 03:07:24;;;;;;;9.77;9.38;;;;;;;15.09;100.00;100301.25;5051536;28;20043;-62
2022/09/11 03:09:50;;;;;;;9.85;9.43;;;;;;;15.14;100.00;100318.31;5048858;28;20032;-62
2022/09/11 03:12:16;;;;;;;10.32;9.82;;;;;;;15.19;100.00;100315.00;5051704;28;20020;-63
2022/09/11 03:14:42;;;;;;;10.23;9.73;;;;;;;15.31;100.00;100307.97;5051756;28;20032;-63
2022/09/11 03:17:08;;;;;;;10.60;10.10;;;;;;;15.25;100.00;100314.16;5047758;28;20025;-62
2022/09/11 03:19:34;;;;;;;10.20;9.70;;;;;;;15.23;100.00;100302.88;5046665;28;20062;-63
2022/09/11 03:22:01;;;;;;;9.93;9.43;;;;;;;15.31;100.00;100310.66;5051527;28;20017;-63
2022/09/11 03:24:27;;;;;;;10.13;9.63;;;;;;;15.38;100.00;100316.78;5051727;28;20659;-63
2022/09/11 03:26:53;;;;;;;10.38;9.88;;;;;;;15.29;100.00;100315.38;5052082;28;20104;-63
2022/09/11 03:29:18;;;;;;;9.80;9.40;;;;;;;15.30;100.00;100327.72;5049616;28;20392;-63
2022/09/11 03:31:44;;;;;;;10.23;9.73;;;;;;;15.24;100.00;100339.25;5040107;28;20025;-63
2022/09/11 03:34:09;;;;;;;9.70;9.30;;;;;;;15.33;100.00;100339.84;5051579;28;20455;-63
2022/09/11 03:36:35;;;;;;;10.07;9.57;;;;;;;15.45;100.00;100330.13;5048949;28;20060;-63
2022/09/11 03:39:01;;;;;;;10.07;9.57;;;;;;;15.25;100.00;100316.81;5050601;28;20032;-63
2022/09/11 03:41:27;;;;;;;9.75;9.35;;;;;;;15.20;100.00;100320.16;5039744;28;20043;-62
2022/09/11 03:43:52;;;;;;;10.07;9.57;;;;;;;15.29;100.00;100322.59;5051187;28;20535;-63
2022/09/11 03:46:18;;;;;;;10.23;9.73;;;;;;;15.30;100.00;100327.72;5039498;28;20033;-62
2022/09/11 03:48:46;;;;;;;10.20;9.70;;;;;;;15.33;100.00;100331.81;5047917;28;20025;-63
2022/09/11 03:51:13;;;;;;;10.10;9.60;;;;;;;15.29;100.00;100326.09;5051210;28;20021;-63
2022/09/11 03:53:40;;;;;;;10.10;9.60;;;;;;;15.26;100.00;100317.66;5037470;28;20032;-62
2022/09/11 03:56:06;;;;;;;10.00;9.50;;;;;;;15.32;100.00;100319.47;5051174;28;20108;-62
2022/09/11 03:58:31;;;;;;;10.15;9.65;;;;;;;15.49;100.00;100320.66;5051211;28;20104;-63
2022/09/11 04:00:57;;;;;;;10.15;9.65;;;;;;;15.79;100.00;100312.97;5051073;28;20108;-63
2022/09/11 04:03:22;;;;;;;9.88;9.40;;;;;;;15.76;100.00;100310.69;5045656;28;20040;-63
2022/09/11 04:06:00;;;;;;;10.18;9.68;;;;;;;15.91;100.00;100308.53;5034069;28;20033;-62
2022/09/11 04:08:26;;;;;;;9.77;9.35;;;;;;;15.69;100.00;100308.03;5038528;28;20025;-63
2022/09/11 04:10:58;;;;;;;9.77;9.38;;;;;;;15.54;100.00;100315.50;5050250;28;20086;-63
2022/09/11 04:13:35;;;;;;;10.10;9.60;;;;;;;15.68;100.00;100319.78;5047752;28;20052;-63
2022/09/11 04:16:07;;;;;;;9.68;9.27;;;;;;;15.83;100.00;100332.06;5042240;28;20017;-62
2022/09/11 04:18:38;;;;;;;10.93;10.43;;;;;;;15.91;100.00;100331.81;5048455;28;20033;-62
2022/09/11 04:21:12;;;;;;;9.75;9.35;;;;;;;15.99;100.00;100345.75;5049567;28;20060;-62
2022/09/11 04:23:38;;;;;;;9.77;9.38;;;;;;;16.00;100.00;100342.03;5051054;28;20037;-62
2022/09/11 04:26:16;;;;;;;9.48;9.07;;;;;;;15.95;100.00;100333.84;5049895;28;20396;-63
2022/09/11 04:28:42;;;;;;;9.70;9.30;;;;;;;15.93;100.00;100335.91;5050982;28;20496;-62
2022/09/11 04:31:08;;;;;;;10.10;9.60;;;;;;;16.03;100.00;100338.13;5039850;28;20095;-63
2022/09/11 04:33:35;;;;;;;10.05;9.55;;;;;;;16.33;100.00;100348.22;5050839;28;20060;-62
2022/09/11 04:36:08;;;;;;;10.18;9.68;;;;;;;16.27;100.00;100353.41;5039634;28;20017;-62
2022/09/11 04:38:35;;;;;;;10.20;9.70;;;;;;;16.12;100.00;100342.19;5048132;28;20098;-64
2022/09/11 04:41:02;;;;;;;10.02;9.52;;;;;;;16.29;100.00;100343.28;5051762;28;20035;-62
2022/09/11 04:43:33;;;;;;;10.13;9.63;;;;;;;16.66;100.00;100337.25;5053272;28;20158;-63
2022/09/11 04:46:00;;;;;;;10.10;9.60;;;;;;;17.59;100.00;100340.66;5054371;28;20037;-63
2022/09/11 04:48:25;;;;;;;10.23;9.73;;;;;;;21.96;100.00;100320.69;5054483;28;20025;-63
2022/09/11 04:51:02;;;;;;;10.20;9.70;;;;;;;24.44;100.00;100319.56;5047790;28;20036;-63
2022/09/11 04:53:27;;;;;;;9.68;9.27;;;;;;;21.54;100.00;100315.09;5053161;28;20403;-63
2022/09/11 04:56:09;;;;;;;9.80;9.40;;;;;;;25.82;100.00;100319.22;5054274;28;20116;-63
2022/09/11 04:58:35;;;;;;;10.05;9.65;;;;;;;26.32;100.00;100322.69;5054200;28;20029;-63
2022/09/11 05:01:14;;;;;;;10.45;9.95;;;;;;;27.42;100.00;100321.09;5052833;28;20031;-62
2022/09/11 05:03:42;;;;;;;10.20;9.80;;;;;;;28.53;100.00;100317.84;5040830;28;20036;-62
2022/09/11 05:06:10;;;;;;;10.10;9.70;;;;;;;29.46;96.19;100321.28;5053963;28;20037;-63
2022/09/11 05:08:36;;;;;;;9.98;9.57;;;;;;;27.83;99.16;100312.38;5038144;28;20037;-62
2022/09/11 05:11:04;;;;;;;10.10;9.70;;;;;;;30.37;87.50;100312.94;5053812;28;20033;-63
2022/09/11 05:13:33;;;;;;;10.32;9.90;;;;;;;31.69;78.28;100304.94;5053898;28;20020;-63
2022/09/11 05:16:28;;;;;;;10.15;9.75;;;;;;;30.48;77.81;100314.31;5053530;28;20075;-63
2022/09/11 05:18:56;;;;;;;10.10;9.70;;;;;;;31.95;73.30;100305.81;5052021;28;20037;-63
2022/09/11 05:21:23;;;;;;;10.00;9.60;;;;;;;32.57;66.09;100299.91;5052667;28;20021;-63
2022/09/11 05:23:50;;;;;;;10.02;9.63;;;;;;;31.20;76.06;100304.97;5053624;28;20033;-63
2022/09/11 05:26:19;;;;;;;10.52;10.02;;;;;;;32.75;65.04;100300.66;5039161;28;20396;-64
2022/09/11 05:28:45;;;;;;;10.07;9.68;;;;;;;33.44;58.69;100307.81;5053766;28;20369;-63
2022/09/11 05:31:14;;;;;;;10.15;9.75;;;;;;;33.81;56.64;100303.34;5040320;28;20074;-64
2022/09/11 05:33:40;;;;;;;10.13;9.73;;;;;;;32.61;60.31;100308.28;5053670;28;20040;-63
2022/09/11 05:36:06;;;;;;;10.15;9.75;;;;;;;34.27;55.06;100299.53;5052939;28;20033;-63
2022/09/11 05:38:33;;;;;;;9.82;9.43;;;;;;;34.20;52.50;100307.56;5053602;28;20053;-64
2022/09/11 05:40:59;;;;;;;10.30;9.90;;;;;;;33.29;53.24;100311.13;5040596;28;20074;-64
2022/09/11 05:43:25;;;;;;;10.32;9.93;;;;;;;34.34;51.04;100304.50;5053415;28;20053;-63
2022/09/11 05:45:55;;;;;;;10.30;9.90;;;;;;;34.66;50.02;100315.84;5053572;28;20044;-63
2022/09/11 05:48:22;;;;;;;10.20;9.80;;;;;;;34.39;49.84;100306.25;5053074;28;20537;-63
2022/09/11 05:50:56;;;;;;;10.38;9.93;;;;;;;34.84;49.06;100309.00;5052512;28;20060;-63
2022/09/11 05:53:22;;;;;;;10.00;9.60;;;;;;;34.87;48.10;100311.84;5053035;28;20036;-62
2022/09/11 05:55:50;;;;;;;10.13;9.73;;;;;;;35.49;46.16;100307.19;5052832;28;20037;-63
2022/09/11 05:58:16;;;;;;;10.07;9.68;;;;;;;35.71;44.11;100300.34;5039056;28;20078;-63
2022/09/11 06:00:45;;;;;;;10.00;9.60;;;;;;;35.01;43.53;100302.47;5053222;28;20112;-63
2022/09/11 06:03:12;;;;;;;10.23;9.82;;;;;;;34.19;46.61;100291.38;5053282;28;20033;-63
2022/09/11 06:05:37;;;;;;;10.05;9.65;;;;;;;33.65;47.26;100294.09;5052164;28;20064;-64
2022/09/11 06:08:03;;;;;;;10.30;9.90;;;;;;;34.85;44.44;100302.34;5038713;28;20049;-63
2022/09/11 06:10:29;;;;;;;10.23;9.82;;;;;;;34.00;46.95;100302.88;5052884;28;20176;-63
2022/09/11 06:12:54;;;;;;;10.50;10.00;;;;;;;33.85;44.69;100298.75;5052486;28;20648;-63
2022/09/11 06:15:20;;;;;;;10.07;9.68;;;;;;;35.41;43.76;100291.56;5051023;28;20392;-63
2022/09/11 06:17:45;;;;;;;10.40;9.90;;;;;;;33.66;44.51;100290.19;5053075;28;20090;-63
2022/09/11 06:20:11;;;;;;;10.27;9.88;;;;;;;33.66;44.55;100293.75;5037403;28;20029;-63
2022/09/11 06:22:37;;;;;;;10.27;9.88;;;;;;;34.05;45.73;100297.16;5052799;28;20554;-63
2022/09/11 06:25:03;;;;;;;10.23;9.82;;;;;;;34.38;43.58;100294.44;5049452;28;20044;-62
2022/09/11 06:27:29;;;;;;;10.10;9.70;;;;;;;35.64;41.45;100298.19;5042303;28;20027;-63
2022/09/11 06:29:54;;;;;;;9.90;9.50;;;;;;;35.05;41.94;100297.91;5052746;28;20024;-63
2022/09/11 06:32:20;;;;;;;10.30;9.90;;;;;;;34.01;45.32;100301.75;5052673;28;20071;-64
2022/09/11 06:34:45;;;;;;;10.40;9.95;;;;;;;34.72;43.21;100301.50;5052788;28;20435;-63
2022/09/11 06:37:12;;;;;;;10.15;9.75;;;;;;;35.59;41.34;100303.13;5041161;28;20032;-63
2022/09/11 06:39:37;;;;;;;10.13;9.73;;;;;;;35.35;42.59;100313.03;5049141;28;20029;-64
2022/09/11 06:42:03;;;;;;;10.30;9.90;;;;;;;34.01;44.77;100299.81;5051015;28;20033;-63
2022/09/11 06:44:29;;;;;;;9.95;9.55;;;;;;;34.98;41.96;100305.94;5052313;28;20416;-63
2022/09/11 06:46:56;;;;;;;10.25;9.85;;;;;;;35.16;41.97;100299.81;5051694;28;20384;-63
2022/09/11 06:49:22;;;;;;;10.13;9.73;;;;;;;34.09;42.98;100295.38;5052066;28;20025;-63
2022/09/11 06:51:51;;;;;;;10.15;9.75;;;;;;;35.26;41.11;100301.34;5051740;28;20049;-63
2022/09/11 06:54:16;;;;;;;10.18;9.77;;;;;;;35.22;41.86;100299.59;5039287;28;20412;-63
2022/09/11 06:56:42;;;;;;;10.05;9.65;;;;;;;36.62;39.10;100297.78;5049293;28;20037;-63
2022/09/11 06:59:07;;;;;;;9.75;9.35;;;;;;;34.77;40.67;100311.50;5051062;28;20025;-63
2022/09/11 07:01:33;;;;;;;10.13;9.73;;;;;;;35.18;41.10;100310.50;5051911;28;20025;-63
2022/09/11 07:03:58;;;;;;;10.40;9.95;;;;;;;35.50;40.19;100306.03;5039908;28;20377;-63
2022/09/11 07:06:29;;;;;;;10.15;9.75;;;;;;;36.06;39.39;100305.31;5051792;28;20029;-64
2022/09/11 07:09:05;;;;;;;10.18;9.77;;;;;;;34.51;41.29;100307.09;5051473;28;20036;-63
2022/09/11 07:11:33;;;;;;;10.40;9.98;;;;;;;35.55;39.45;100307.72;5040135;28;20052;-63
2022/09/11 07:14:01;;;;;;;10.02;9.63;;;;;;;35.02;39.55;100307.66;5038132;28;20025;-64
2022/09/11 07:16:27;;;;;;;10.32;9.88;;;;;;;35.66;39.04;100312.44;5051199;28;20399;-64
2022/09/11 07:18:52;;;;;;;10.40;9.95;;;;;;;36.71;36.91;100306.69;5051825;28;20021;-64
2022/09/11 07:21:23;;;;;;;10.15;9.75;;;;;;;35.62;38.48;100313.47;5051690;28;20028;-65
2022/09/11 07:23:54;;;;;;;10.15;9.75;;;;;;;36.11;36.69;100305.06;5051563;28;20032;-64
2022/09/11 07:26:21;;;;;;;9.75;9.35;;;;;;;35.23;37.89;100304.78;5051855;28;20020;-64
2022/09/11 07:28:50;;;;;;;9.90;9.50;;;;;;;36.07;38.08;100304.19;5045514;28;20122;-63
2022/09/11 07:31:21;;;;;;;10.05;9.65;;;;;;;34.65;39.82;100301.25;5044093;28;20036;-63
2022/09/11 07:33:47;;;;;;;9.95;9.55;;;;;;;33.85;41.14;100297.97;5050487;28;20107;-64
2022/09/11 07:36:19;;;;;;;9.90;9.50;;;;;;;35.41;38.84;100299.84;5051312;28;20047;-63
2022/09/11 07:38:46;;;;;;;10.00;9.60;;;;;;;34.46;40.53;100296.31;5051355;28;20025;-65
2022/09/11 07:41:14;;;;;;;9.88;9.48;;;;;;;35.47;38.25;100301.19;5051028;28;20032;-63
2022/09/11 07:43:40;;;;;;;10.02;9.63;;;;;;;35.32;38.49;100299.94;5051109;28;20106;-64
2022/09/11 07:46:08;;;;;;;10.18;9.77;;;;;;;31.64;40.82;100294.94;5049235;28;20025;-63
2022/09/11 07:48:35;;;;;;;9.95;9.55;;;;;;;29.15;44.83;100296.50;5051182;28;20033;-64
2022/09/11 07:51:06;;;;;;;9.80;9.40;;;;;;;30.69;57.94;100298.16;5039709;28;20140;-63
2022/09/11 07:53:39;;;;;;;9.98;9.57;;;;;;;28.93;53.22;100286.28;5049199;28;20024;-63
2022/09/11 07:56:07;;;;;;;9.85;9.45;;;;;;;29.78;64.13;100282.06;5054636;28;20032;-64
2022/09/11 07:58:37;;;;;;;10.23;9.82;;;;;;;33.31;47.31;100284.91;5036922;28;20051;-64
2022/09/11 08:01:04;;;;;;;10.00;9.60;;;;;;;33.72;43.55;100286.09;5050922;28;20500;-64
2022/09/11 08:03:34;;;;;;;10.10;9.70;;;;;;;27.19;76.83;100282.69;5051024;28;20028;-64
2022/09/11 08:06:01;;;;;;;10.23;9.82;;;;;;;27.78;74.36;100265.03;5051008;28;20051;-64
2022/09/11 08:08:28;;;;;;;10.20;9.80;;;;;;;32.51;53.31;100278.44;5049885;28;20025;-63
2022/09/11 08:11:02;;;;;;;10.10;9.70;;;;;;;34.15;45.01;100271.97;5051295;28;20036;-64
2022/09/11 08:13:28;;;;;;;9.80;9.40;;;;;;;32.63;44.37;100270.34;5036918;28;20064;-63
2022/09/11 08:15:53;;;;;;;10.20;9.80;;;;;;;33.54;43.56;100266.16;5051907;28;20060;-63
2022/09/11 08:18:19;;;;;;;10.02;9.63;;;;;;;28.60;63.12;100264.50;5054862;28;20052;-63
2022/09/11 08:20:44;;;;;;;10.18;9.77;;;;;;;32.53;49.18;100266.00;5054947;28;20029;-64
2022/09/11 08:23:11;;;;;;;10.48;9.98;;;;;;;33.48;47.28;100267.50;5054974;28;20457;-63
2022/09/11 08:25:37;;;;;;;10.57;10.07;;;;;;;30.61;53.54;100267.97;5054110;28;20082;-63
2022/09/11 08:28:03;;;;;;;11.10;10.60;;;;;;;32.36;50.39;100264.09;5054887;28;20074;-64
2022/09/11 08:30:31;;;;;;;10.55;10.05;;;;;;;32.14;48.22;100264.28;5037793;28;20036;-63
2022/09/11 08:32:56;;;;;;;10.68;10.18;;;;;;;26.30;77.48;100252.28;5054543;28;20025;-63
2022/09/11 08:35:22;;;;;;;10.07;9.68;;;;;;;26.45;86.31;100262.22;5044723;28;20380;-64
2022/09/11 08:37:47;;;;;;;10.80;10.30;;;;;;;30.53;62.10;100259.41;5054678;28;20039;-64
2022/09/11 08:40:13;;;;;;;10.80;10.30;;;;;;;30.84;56.93;100261.34;5054725;28;20472;-63
2022/09/11 08:42:44;;;;;;;10.90;10.40;;;;;;;28.99;65.55;100254.22;5053587;28;20035;-63
2022/09/11 08:45:16;;;;;;;10.50;10.00;;;;;;;30.84;58.56;100258.59;5054156;28;20129;-64
2022/09/11 08:47:48;;;;;;;11.05;10.55;;;;;;;31.13;54.27;100260.78;5039910;28;20035;-65
2022/09/11 08:50:31;;;;;;;10.90;10.40;;;;;;;31.28;53.87;100248.59;5041510;28;20124;-64
2022/09/11 08:53:01;;;;;;;9.80;9.40;;;;;;;30.47;55.31;100246.16;5045760;28;20028;-64
2022/09/11 08:55:49;;;;;;;9.95;9.55;;;;;;;30.24;57.07;100245.41;5051512;28;20437;-64
2022/09/11 08:58:45;;;;;;;10.65;10.15;;;;;;;23.85;98.66;100235.22;5053248;28;20090;-63
2022/09/11 09:01:38;;;;;;;10.68;10.18;;;;;;;26.53;90.48;100234.41;5052517;28;20425;-63
2022/09/11 09:04:22;;;;;;;10.00;9.60;;;;;;;28.91;76.13;100231.16;5053983;28;20091;-63
2022/09/11 09:07:08;;;;;;;;;;;;;;;28.02;75.58;100231.38;5054841;28;20131;-63
2022/09/11 09:10:00;;;;;;;10.40;9.90;;;;;;;29.06;69.38;100230.84;5053482;28;19920;-64
2022/09/11 09:12:56;;;;;;;10.52;10.02;;;;;;;30.16;67.52;100227.00;5053974;28;20025;-64
2022/09/11 09:16:14;;;;;;;10.57;10.07;;;;;;;28.96;73.94;100216.63;5052891;28;20033;-64
2022/09/11 09:18:45;;;;;;;10.05;9.65;;;;;;;26.54;86.76;100210.72;5047083;28;20040;-63
2022/09/11 09:21:18;;;;;;;10.10;9.70;;;;;;;28.23;79.33;100208.13;5054324;28;20033;-64
2022/09/11 09:23:50;;;;;;;10.50;10.00;;;;;;;26.68;91.29;100206.22;5052323;28;20116;-63
2022/09/11 09:26:17;;;;;;;10.85;10.35;;;;;;;27.38;86.58;100213.78;5053295;28;20031;-63
2022/09/11 09:28:56;;;;;;;10.50;10.00;;;;;;;24.83;97.00;100215.91;5053663;28;20380;-64
2022/09/11 09:31:27;;;;;;;10.68;10.18;;;;;;;28.12;85.87;100212.13;5053624;28;20044;-62
2022/09/11 09:33:59;;;;;;;10.20;9.80;;;;;;;24.95;96.54;100205.53;5051589;28;20021;-64
2022/09/11 09:36:30;;;;;;;10.00;9.60;;;;;;;27.60;87.40;100215.94;5053573;28;20461;-63
2022/09/11 09:38:57;;;;;;;10.20;9.80;;;;;;;27.78;84.46;100213.22;5054037;28;20023;-63
2022/09/11 09:41:39;;;;;;;10.60;10.10;;;;;;;28.50;78.22;100222.94;5042930;28;20082;-62
2022/09/11 09:44:36;;;;;;;10.20;9.80;;;;;;;26.95;86.63;100216.50;5042306;28;20508;-64
2022/09/11 09:47:02;;;;;;;9.95;9.55;;;;;;;28.13;80.90;100208.31;5053157;28;20100;-63
2022/09/11 09:49:35;;;;;;;10.52;10.02;;;;;;;27.70;80.36;100211.19;5049821;28;20121;-63
2022/09/11 09:52:25;;;;;;;10.23;9.82;;;;;;;27.96;80.34;100214.28;5041302;28;20021;-63
2022/09/11 09:54:55;;;;;;;10.10;9.70;;;;;;;28.18;79.09;100221.81;5041798;28;20021;-63
2022/09/11 09:57:25;;;;;;;9.90;9.50;;;;;;;27.66;80.11;100215.56;5053197;28;20025;-63
2022/09/11 10:00:03;;;;;;;10.50;10.00;;;;;;;27.04;84.75;100203.06;5053013;28;20396;-63
2022/09/11 10:02:41;;;;;;;10.00;9.60;;;;;;;26.92;85.10;100198.84;5049779;28;20045;-64
2022/09/11 10:05:26;;;;;;;10.52;10.02;;;;;;;25.82;92.33;100202.38;5051208;28;20025;-63
2022/09/11 10:07:58;;;;;;;10.38;9.88;;;;;;;26.55;91.26;100204.19;5050167;28;20029;-63
2022/09/11 10:10:33;;;;;;;9.80;9.40;;;;;;;26.09;88.94;100194.53;5052732;28;20033;-64
2022/09/11 10:13:23;;;;;;;10.10;9.70;;;;;;;25.73;91.23;100202.16;5052907;28;20021;-63
2022/09/11 10:15:51;;;;;;;10.20;9.80;;;;;;;25.81;91.85;100195.31;5048727;28;20048;-63
2022/09/11 10:18:29;;;;;;;10.27;9.80;;;;;;;26.10;89.78;100201.59;5052838;28;20017;-63
2022/09/11 10:21:13;;;;;;;10.45;9.95;;;;;;;25.42;94.77;100203.44;5052713;28;20029;-64
2022/09/11 10:24:12;;;;;;;9.90;9.50;;;;;;;25.13;97.44;100193.28;5048795;28;20025;-63
2022/09/11 10:26:44;;;;;;;10.68;10.18;;;;;;;25.86;95.17;100198.00;5031620;28;20037;-64
2022/09/11 10:29:23;;;;;;;11.18;10.68;;;;;;;26.16;94.88;100200.47;5048565;28;20061;-62
2022/09/11 10:31:52;;;;;;;10.32;9.82;;;;;;;25.33;92.86;100195.06;5048416;28;20025;-64
2022/09/11 10:34:20;;;;;;;9.85;9.45;;;;;;;25.68;91.99;100193.22;5052521;28;20056;-63
2022/09/11 10:36:53;;;;;;;9.80;9.40;;;;;;;25.79;91.73;100190.19;5047827;28;20043;-64
2022/09/11 10:39:20;;;;;;;10.05;9.65;;;;;;;25.71;93.04;100189.94;5044457;28;20017;-64
2022/09/11 10:41:48;;;;;;;10.00;9.60;;;;;;;25.93;93.08;100187.63;5048930;28;20119;-65
2022/09/11 10:44:16;;;;;;;10.00;9.60;;;;;;;24.94;96.81;100179.50;5050708;28;20053;-63
2022/09/11 10:46:44;;;;;;;9.98;9.57;;;;;;;24.40;99.13;100163.97;5039683;28;20113;-63
2022/09/11 10:49:10;;;;;;;9.90;9.50;;;;;;;24.70;98.28;100151.38;5048143;28;20468;-64
2022/09/11 10:51:38;;;;;;;10.23;9.80;;;;;;;24.90;98.70;100156.72;5050562;28;20082;-63
2022/09/11 10:54:15;;;;;;;10.07;9.68;;;;;;;25.35;98.10;100163.84;5052243;28;20028;-63
2022/09/11 10:57:12;;;;;;;10.82;10.32;;;;;;;25.05;96.49;100159.41;5050390;28;20120;-64
2022/09/11 10:59:40;;;;;;;11.05;10.55;;;;;;;25.35;95.27;100152.16;5039338;28;20049;-64
2022/09/11 11:02:27;;;;;;;10.00;9.60;;;;;;;25.37;94.33;100155.41;5046995;28;20515;-64
2022/09/11 11:04:55;;;;;;;10.60;10.10;;;;;;;24.97;95.53;100151.81;5045985;28;20481;-64
2022/09/11 11:07:23;;;;;;;10.00;9.60;;;;;;;25.49;95.51;100152.34;5051862;28;20388;-65
2022/09/11 11:09:51;;;;;;;9.82;9.43;;;;;;;25.37;96.92;100144.53;5040079;28;20497;-65
2022/09/11 11:12:33;;;;;;;10.10;9.70;;;;;;;25.03;95.22;100137.13;5038455;28;20050;-65
2022/09/11 11:15:52;;;;;;;9.95;9.55;;;;;;;25.08;97.21;100128.97;5035733;28;20500;-65
2022/09/11 11:18:25;;;;;;;9.70;9.30;;;;;;;24.84;95.44;100121.75;5005600;28;20057;-66
2022/09/11 11:21:19;;;;;;;9.75;9.35;;;;;;;24.43;100.00;100116.50;5009562;28;20413;-64
2022/09/11 11:24:11;;;;;;;9.98;9.57;;;;;;;25.44;94.48;100117.06;5032495;28;20051;-65
2022/09/11 11:26:46;;;;;;;10.48;9.98;;;;;;;25.19;93.12;100118.03;5047773;28;20632;-63
2022/09/11 11:29:44;;;;;;;10.40;9.90;;;;;;;23.61;99.92;100115.78;5047279;28;20033;-65
2022/09/11 11:32:18;;;;;;;10.50;10.00;;;;;;;23.38;100.00;100117.09;5036486;28;20029;-65
2022/09/11 11:35:02;;;;;;;;;;;;;;;23.72;100.00;100106.56;5051738;28;20032;-65